createdAt,value
2017-05-11T04:40:16.997Z,20.50
2017-05-11T04:41:12.329Z,20.50
2017-05-11T04:42:12.229Z,20.50
2017-05-11T04:43:14.421Z,20.50
2017-05-11T04:44:18.978Z,20.50
2017-05-11T04:45:14.859Z,20.50
2017-05-11T04:46:14.490Z,20.50
2017-05-11T04:47:15.754Z,20.50
2017-05-11T04:48:13.706Z,20.50
2017-05-11T04:49:12.967Z,20.50
2017-05-11T04:50:14.881Z,20.50
2017-05-11T04:51:13.681Z,20.50
2017-05-11T04:52:15.169Z,20.50
2017-05-11T04:53:14.735Z,20.50
2017-05-11T04:54:13.289Z,20.50
2017-05-11T04:55:13.718Z,20.50
2017-05-11T04:56:15.914Z,20.50
2017-05-11T04:57:16.500Z,20.50
2017-05-11T04:58:14.415Z,20.50
2017-05-11T04:59:13.292Z,20.50
2017-05-11T05:00:15.106Z,20.50
2017-05-11T05:01:13.333Z,20.50
2017-05-11T05:02:16.788Z,20.50
2017-05-11T05:03:13.851Z,20.50
2017-05-11T05:04:13.880Z,20.50
2017-05-11T05:05:14.063Z,20.50
2017-05-11T05:06:13.800Z,20.50
2017-05-11T05:07:13.801Z,20.50
2017-05-11T05:08:13.759Z,20.50
2017-05-11T05:09:13.316Z,20.50
2017-05-11T05:10:13.408Z,20.50
2017-05-11T05:11:14.430Z,20.50
2017-05-11T05:12:13.816Z,20.50
2017-05-11T05:13:13.829Z,20.50
2017-05-11T05:14:13.550Z,20.50
2017-05-11T05:15:10.819Z,20.50
2017-05-11T05:16:13.410Z,20.50
2017-05-11T05:17:15.351Z,20.50
2017-05-11T05:18:13.347Z,20.50
2017-05-11T05:19:12.269Z,20.50
2017-05-11T05:20:12.286Z,20.50
2017-05-11T05:21:13.107Z,20.50
2017-05-11T05:22:13.478Z,20.50
2017-05-11T05:23:14.617Z,20.50
2017-05-11T05:24:15.713Z,20.50
2017-05-11T05:25:15.079Z,20.50
2017-05-11T05:26:16.434Z,20.50
2017-05-11T05:27:13.253Z,20.50
2017-05-11T05:28:16.288Z,20.50
2017-05-11T05:29:15.231Z,20.50
2017-05-11T05:30:14.318Z,20.50
2017-05-11T05:31:13.224Z,20.50
2017-05-11T05:32:13.677Z,20.50
2017-05-11T05:33:13.607Z,20.50
2017-05-11T05:34:15.871Z,20.50
2017-05-11T05:35:14.203Z,20.50
2017-05-11T05:36:14.235Z,20.50
2017-05-11T05:37:14.900Z,20.50
2017-05-11T05:38:14.743Z,20.50
2017-05-11T05:39:15.594Z,20.50
2017-05-11T05:40:13.411Z,20.50
2017-05-11T05:41:11.313Z,20.50
2017-05-11T05:42:12.993Z,20.50
2017-05-11T05:43:15.686Z,20.50
2017-05-11T05:44:16.822Z,20.50
2017-05-11T05:45:14.421Z,20.50
2017-05-11T05:46:12.989Z,20.50
2017-05-11T05:47:15.103Z,20.50
2017-05-11T05:48:13.359Z,20.50
2017-05-11T05:49:12.162Z,20.50
2017-05-11T05:50:15.062Z,20.50
2017-05-11T05:51:14.529Z,20.50
2017-05-11T05:52:14.196Z,20.50
2017-05-11T05:53:13.906Z,20.50
2017-05-11T05:54:11.271Z,20.50
2017-05-11T05:55:14.553Z,20.50
2017-05-11T05:56:13.531Z,20.50
2017-05-11T05:57:14.797Z,20.50
2017-05-11T05:58:13.515Z,20.50
2017-05-11T05:59:14.367Z,20.50
2017-05-11T06:00:13.749Z,20.50
2017-05-11T06:01:14.040Z,20.50
2017-05-11T06:02:13.365Z,20.50
2017-05-11T06:03:13.592Z,20.50
2017-05-11T06:04:14.645Z,20.50
2017-05-11T06:05:14.637Z,20.50
2017-05-11T06:06:15.385Z,20.50
2017-05-11T06:07:14.053Z,20.50
2017-05-11T06:08:16.170Z,20.50
2017-05-11T06:09:12.221Z,20.50
2017-05-11T06:10:15.624Z,20.50
2017-05-11T06:11:13.065Z,20.50
2017-05-11T06:12:13.363Z,20.50
2017-05-11T06:13:13.827Z,20.50
2017-05-11T06:14:10.744Z,20.50
2017-05-11T06:15:14.175Z,20.40
2017-05-11T06:16:15.799Z,20.50
2017-05-11T06:17:13.771Z,20.40
2017-05-11T06:18:14.800Z,20.40
2017-05-11T06:19:13.956Z,20.50
2017-05-11T06:20:13.761Z,20.50
2017-05-11T06:21:13.947Z,20.50
2017-05-11T06:22:12.917Z,20.50
2017-05-11T06:23:15.753Z,20.50
2017-05-11T06:24:14.645Z,20.50
2017-05-11T06:25:15.500Z,20.50
2017-05-11T06:26:13.789Z,20.50
2017-05-11T06:27:13.757Z,20.50
2017-05-11T06:28:14.562Z,20.50
2017-05-11T06:29:14.516Z,20.50
2017-05-11T06:30:13.301Z,20.50
2017-05-11T06:31:16.369Z,20.50
2017-05-11T06:32:14.872Z,20.50
2017-05-11T06:33:13.085Z,20.50
2017-05-11T06:34:14.350Z,20.50
2017-05-11T06:35:13.781Z,20.50
2017-05-11T06:36:13.642Z,20.50
2017-05-11T06:37:13.506Z,20.50
2017-05-11T06:38:13.409Z,20.50
2017-05-11T06:39:13.548Z,20.50
2017-05-11T06:40:15.541Z,20.50
2017-05-11T06:41:13.645Z,20.50
2017-05-11T06:42:14.903Z,20.50
2017-05-11T06:43:13.803Z,20.50
2017-05-11T06:44:12.990Z,20.50
2017-05-11T06:45:12.968Z,20.50
2017-05-11T06:46:17.866Z,20.50
2017-05-11T06:47:14.578Z,20.50
2017-05-11T06:48:13.833Z,20.50
2017-05-11T06:49:13.632Z,20.50
2017-05-11T06:50:14.060Z,20.50
2017-05-11T06:51:16.065Z,20.50
2017-05-11T06:52:13.256Z,20.50
2017-05-11T06:53:14.421Z,20.40
2017-05-11T06:54:13.709Z,20.50
2017-05-11T06:55:12.198Z,20.50
2017-05-11T06:56:13.638Z,20.50
2017-05-11T06:57:14.665Z,20.50
2017-05-11T06:58:13.095Z,20.50
2017-05-11T06:59:14.988Z,20.50
2017-05-11T07:00:13.750Z,20.40
2017-05-11T07:01:13.445Z,20.50
2017-05-11T07:02:13.830Z,20.50
2017-05-11T07:03:14.891Z,20.50
2017-05-11T07:04:10.501Z,20.50
2017-05-11T07:05:13.817Z,20.50
2017-05-11T07:06:13.296Z,20.50
2017-05-11T07:07:13.952Z,20.50
2017-05-11T07:08:13.551Z,20.50
2017-05-11T07:09:16.497Z,20.40
2017-05-11T07:10:14.709Z,20.50
2017-05-11T07:11:14.615Z,20.50
2017-05-11T07:12:15.627Z,20.40
2017-05-11T07:13:14.720Z,20.40
2017-05-11T07:14:13.517Z,20.50
2017-05-11T07:15:14.964Z,20.50
2017-05-11T07:16:13.655Z,20.50
2017-05-11T07:17:09.530Z,20.50
2017-05-11T07:18:09.050Z,20.50
2017-05-11T07:19:13.867Z,20.50
2017-05-11T07:20:14.294Z,20.50
2017-05-11T07:21:13.880Z,20.50
2017-05-11T07:22:14.289Z,20.50
2017-05-11T07:23:13.707Z,20.50
2017-05-11T07:24:11.095Z,20.50
2017-05-11T07:25:13.416Z,20.50
2017-05-11T07:26:14.533Z,20.50
2017-05-11T07:27:16.506Z,20.50
2017-05-11T07:28:14.271Z,20.50
2017-05-11T07:29:13.574Z,20.50
2017-05-11T07:30:13.827Z,20.50
2017-05-11T07:31:14.585Z,20.50
2017-05-11T07:32:13.650Z,20.50
2017-05-11T07:33:13.491Z,20.50
2017-05-11T07:34:15.604Z,20.50
2017-05-11T07:35:15.391Z,20.50
2017-05-11T07:36:13.290Z,20.50
2017-05-11T07:37:17.026Z,20.50
2017-05-11T07:38:13.634Z,20.50
2017-05-11T07:39:12.492Z,20.50
2017-05-11T07:40:13.818Z,20.50
2017-05-11T07:41:14.038Z,20.50
2017-05-11T07:42:15.490Z,20.50
2017-05-11T07:43:15.990Z,20.50
2017-05-11T07:44:13.614Z,20.50
2017-05-11T07:45:12.275Z,20.50
2017-05-11T07:46:15.896Z,20.50
2017-05-11T07:47:14.461Z,20.50
2017-05-11T07:48:13.380Z,20.50
2017-05-11T07:49:13.821Z,20.50
2017-05-11T07:50:13.838Z,20.50
2017-05-11T07:51:13.940Z,20.50
2017-05-11T07:52:13.474Z,20.50
2017-05-11T07:53:14.574Z,20.50
2017-05-11T07:54:13.522Z,20.50
2017-05-11T07:55:15.718Z,20.50
2017-05-11T07:56:14.118Z,20.50
2017-05-11T07:57:14.755Z,20.50
2017-05-11T07:58:16.095Z,20.50
2017-05-11T07:59:16.096Z,20.50
2017-05-11T08:00:14.701Z,20.50
2017-05-11T08:01:14.419Z,20.50
2017-05-11T08:02:13.792Z,20.50
2017-05-11T08:03:14.508Z,20.50
2017-05-11T08:04:18.431Z,20.50
2017-05-11T08:05:14.351Z,20.50
2017-05-11T08:06:14.527Z,20.50
2017-05-11T08:07:14.431Z,20.50
2017-05-11T08:08:13.194Z,20.50
2017-05-11T08:09:15.060Z,20.50
2017-05-11T08:10:14.423Z,20.60
2017-05-11T08:11:13.815Z,20.60
2017-05-11T08:12:15.911Z,20.60
2017-05-11T08:13:13.903Z,20.60
2017-05-11T08:14:13.816Z,20.60
2017-05-11T08:15:15.373Z,20.60
2017-05-11T08:16:13.633Z,20.60
2017-05-11T08:17:14.321Z,20.60
2017-05-11T08:18:14.119Z,20.60
2017-05-11T08:19:14.644Z,20.60
2017-05-11T08:20:15.695Z,20.50
2017-05-11T08:21:14.292Z,20.60
2017-05-11T08:22:15.186Z,20.50
2017-05-11T08:23:13.776Z,20.50
2017-05-11T08:24:14.406Z,20.60
2017-05-11T08:25:13.977Z,20.60
2017-05-11T08:26:12.319Z,20.60
2017-05-11T08:27:15.749Z,20.60
2017-05-11T08:28:13.963Z,20.60
2017-05-11T08:29:16.250Z,20.60
2017-05-11T08:30:14.283Z,20.60
2017-05-11T08:31:13.687Z,20.60
2017-05-11T08:32:14.620Z,20.60
2017-05-11T08:33:13.592Z,20.60
2017-05-11T08:34:12.479Z,20.60
2017-05-11T08:35:12.317Z,20.60
2017-05-11T08:36:13.886Z,20.60
2017-05-11T08:37:13.841Z,20.60
2017-05-11T08:38:16.706Z,20.60
2017-05-11T08:39:15.058Z,20.60
2017-05-11T08:40:16.888Z,20.60
2017-05-11T08:41:14.359Z,20.60
2017-05-11T08:42:15.352Z,20.60
2017-05-11T08:43:14.884Z,20.60
2017-05-11T08:44:13.637Z,20.60
2017-05-11T08:45:18.292Z,20.60
2017-05-11T08:46:12.939Z,20.60
2017-05-11T08:47:13.758Z,20.60
2017-05-11T08:48:13.644Z,20.70
2017-05-11T08:49:15.766Z,20.70
2017-05-11T08:50:15.117Z,20.70
2017-05-11T08:51:14.797Z,20.70
2017-05-11T08:52:13.891Z,20.70
2017-05-11T08:53:14.099Z,20.70
2017-05-11T08:54:12.417Z,20.70
2017-05-11T08:55:15.862Z,20.70
2017-05-11T08:56:13.487Z,20.70
2017-05-11T08:57:15.186Z,20.70
2017-05-11T08:58:14.476Z,20.80
2017-05-11T08:59:13.760Z,20.80
2017-05-11T09:00:13.960Z,20.80
2017-05-11T09:01:14.040Z,20.80
2017-05-11T09:02:13.524Z,20.80
2017-05-11T09:03:14.487Z,20.80
2017-05-11T09:04:13.323Z,20.80
2017-05-11T09:05:13.602Z,20.80
2017-05-11T09:06:13.627Z,20.80
2017-05-11T09:07:13.625Z,20.80
2017-05-11T09:08:14.553Z,20.80
2017-05-11T09:09:12.266Z,20.80
2017-05-11T09:10:13.391Z,20.80
2017-05-11T09:11:16.876Z,20.80
2017-05-11T09:12:15.307Z,20.80
2017-05-11T09:13:15.271Z,20.80
2017-05-11T09:14:13.746Z,20.90
2017-05-11T09:15:14.642Z,20.80
2017-05-11T09:16:14.406Z,20.90
2017-05-11T09:17:16.555Z,20.90
2017-05-11T09:18:14.954Z,20.90
2017-05-11T09:19:14.848Z,20.90
2017-05-11T09:20:10.319Z,20.90
2017-05-11T09:21:14.343Z,20.80
2017-05-11T09:22:15.802Z,20.90
2017-05-11T09:23:13.678Z,20.90
2017-05-11T09:24:14.727Z,20.90
2017-05-11T09:25:13.434Z,20.90
2017-05-11T09:26:13.905Z,20.90
2017-05-11T09:27:14.739Z,20.90
2017-05-11T09:28:14.028Z,20.90
2017-05-11T09:29:14.372Z,20.90
2017-05-11T09:30:18.019Z,20.90
2017-05-11T09:31:13.934Z,20.90
2017-05-11T09:32:12.468Z,20.90
2017-05-11T09:33:13.580Z,20.90
2017-05-11T09:34:13.131Z,20.90
2017-05-11T09:35:13.348Z,20.90
2017-05-11T09:36:14.037Z,20.90
2017-05-11T09:37:12.257Z,20.90
2017-05-11T09:38:14.870Z,20.80
2017-05-11T09:39:13.615Z,20.80
2017-05-11T09:40:16.493Z,20.80
2017-05-11T09:41:15.774Z,20.80
2017-05-11T09:42:13.698Z,20.80
2017-05-11T09:43:10.266Z,20.80
2017-05-11T09:44:14.552Z,20.80
2017-05-11T09:45:14.633Z,20.80
2017-05-11T09:46:14.016Z,20.80
2017-05-11T09:47:14.903Z,20.80
2017-05-11T09:48:15.569Z,20.80
2017-05-11T09:49:15.344Z,20.80
2017-05-11T09:50:13.479Z,20.80
2017-05-11T09:51:14.586Z,20.80
2017-05-11T09:52:14.968Z,20.80
2017-05-11T09:53:15.905Z,20.80
2017-05-11T09:54:12.256Z,20.80
2017-05-11T09:55:12.279Z,20.80
2017-05-11T09:56:14.643Z,20.80
2017-05-11T09:57:14.516Z,20.80
2017-05-11T09:58:13.591Z,20.80
2017-05-11T09:59:14.032Z,20.80
2017-05-11T10:00:12.079Z,20.80
2017-05-11T10:01:13.521Z,20.90
2017-05-11T10:02:14.686Z,20.90
2017-05-11T10:03:14.285Z,20.90
2017-05-11T10:04:13.524Z,20.90
2017-05-11T10:05:13.345Z,20.90
2017-05-11T10:06:15.538Z,20.90
2017-05-11T10:07:14.380Z,20.90
2017-05-11T10:08:13.985Z,20.90
2017-05-11T10:09:14.491Z,20.90
2017-05-11T10:10:15.186Z,20.80
2017-05-11T10:11:13.669Z,20.90
2017-05-11T10:12:10.355Z,20.90
2017-05-11T10:13:13.875Z,20.90
2017-05-11T10:14:13.715Z,20.90
2017-05-11T10:15:15.660Z,20.90
2017-05-11T10:16:14.028Z,20.90
2017-05-11T10:17:11.889Z,20.90
2017-05-11T10:18:13.091Z,20.90
2017-05-11T10:19:15.165Z,20.90
2017-05-11T10:20:14.382Z,20.90
2017-05-11T10:21:13.853Z,20.90
2017-05-11T10:22:15.654Z,20.90
2017-05-11T10:23:14.614Z,20.90
2017-05-11T10:24:13.594Z,20.90
2017-05-11T10:25:13.709Z,20.90
2017-05-11T10:26:13.786Z,20.90
2017-05-11T10:27:14.016Z,20.90
2017-05-11T10:28:13.380Z,20.90
2017-05-11T10:29:12.271Z,20.90
2017-05-11T10:30:13.910Z,20.90
2017-05-11T10:31:15.160Z,20.90
2017-05-11T10:32:13.148Z,20.90
2017-05-11T10:33:13.313Z,20.90
2017-05-11T10:34:13.920Z,21.00
2017-05-11T10:35:14.851Z,21.00
2017-05-11T10:36:14.422Z,21.00
2017-05-11T10:37:13.563Z,21.00
2017-05-11T10:38:14.653Z,21.00
2017-05-11T10:39:15.805Z,21.00
2017-05-11T10:40:12.229Z,21.00
2017-05-11T10:41:17.864Z,21.00
2017-05-11T10:42:14.096Z,21.00
2017-05-11T10:43:15.682Z,21.10
2017-05-11T10:44:15.275Z,21.00
2017-05-11T10:45:13.865Z,21.00
2017-05-11T10:46:13.653Z,21.10
2017-05-11T10:47:16.007Z,21.10
2017-05-11T10:48:13.661Z,21.10
2017-05-11T10:49:17.626Z,21.10
2017-05-11T10:50:15.258Z,21.10
2017-05-11T10:51:13.800Z,21.10
2017-05-11T10:52:13.646Z,21.10
2017-05-11T10:53:16.638Z,21.10
2017-05-11T10:54:14.381Z,21.10
2017-05-11T10:55:13.861Z,21.10
2017-05-11T10:56:13.817Z,21.10
2017-05-11T10:57:13.648Z,21.10
2017-05-11T10:58:13.716Z,21.10
2017-05-11T10:59:15.599Z,21.00
2017-05-11T11:00:14.689Z,21.00
2017-05-11T11:01:13.745Z,21.10
2017-05-11T11:02:15.111Z,21.10
2017-05-11T11:03:13.731Z,21.10
2017-05-11T11:04:13.974Z,21.10
2017-05-11T11:05:13.712Z,21.10
2017-05-11T11:06:13.848Z,21.10
2017-05-11T11:07:13.543Z,21.20
2017-05-11T11:08:14.478Z,21.20
2017-05-11T11:09:13.542Z,21.20
2017-05-11T11:10:15.312Z,21.20
2017-05-11T11:11:15.114Z,21.20
2017-05-11T11:12:14.221Z,21.20
2017-05-11T11:13:15.536Z,21.10
2017-05-11T11:14:14.000Z,21.10
2017-05-11T11:15:13.822Z,21.10
2017-05-11T11:16:13.938Z,21.20
2017-05-11T11:17:13.974Z,21.20
2017-05-11T11:18:14.105Z,21.20
2017-05-11T11:19:13.461Z,21.10
2017-05-11T11:20:13.727Z,21.20
2017-05-11T11:21:12.756Z,21.20
2017-05-11T11:22:14.053Z,21.20
2017-05-11T11:23:13.368Z,21.20
2017-05-11T11:24:13.738Z,21.20
2017-05-11T11:25:14.272Z,21.20
2017-05-11T11:26:13.560Z,21.20
2017-05-11T11:27:13.607Z,21.20
2017-05-11T11:28:14.669Z,21.20
2017-05-11T11:29:13.305Z,21.20
2017-05-11T11:30:13.630Z,21.20
2017-05-11T11:31:13.535Z,21.20
2017-05-11T11:32:15.267Z,21.20
2017-05-11T11:33:13.933Z,21.20
2017-05-11T11:34:13.351Z,21.20
2017-05-11T11:35:14.400Z,21.20
2017-05-11T11:36:13.832Z,21.20
2017-05-11T11:37:13.418Z,21.20
2017-05-11T11:38:13.743Z,21.20
2017-05-11T11:39:13.040Z,21.20
2017-05-11T11:40:13.209Z,21.20
2017-05-11T11:41:15.832Z,21.20
2017-05-11T11:42:13.217Z,21.20
2017-05-11T11:43:13.068Z,21.20
2017-05-11T11:44:13.562Z,21.30
2017-05-11T11:45:14.686Z,21.20
2017-05-11T11:46:13.516Z,21.30
2017-05-11T11:47:13.714Z,21.30
2017-05-11T11:48:14.617Z,21.30
2017-05-11T11:49:14.257Z,21.30
2017-05-11T11:50:14.267Z,21.30
2017-05-11T11:51:13.232Z,21.30
2017-05-11T11:52:13.561Z,21.30
2017-05-11T11:53:13.764Z,21.30
2017-05-11T11:54:13.059Z,21.30
2017-05-11T11:55:09.483Z,21.30
2017-05-11T11:56:14.658Z,21.30
2017-05-11T11:57:10.812Z,21.30
2017-05-11T11:58:13.885Z,21.20
2017-05-11T11:59:14.174Z,21.20
2017-05-11T12:00:10.466Z,21.20
2017-05-11T12:01:14.261Z,21.20
2017-05-11T12:02:14.329Z,21.20
2017-05-11T12:03:11.286Z,21.20
2017-05-11T12:04:14.348Z,21.20
2017-05-11T12:05:13.598Z,21.20
2017-05-11T12:06:14.357Z,21.20
2017-05-11T12:07:14.356Z,21.20
2017-05-11T12:08:14.772Z,21.20
2017-05-11T12:09:15.764Z,21.20
2017-05-11T12:10:14.598Z,21.20
2017-05-11T12:11:14.264Z,21.20
2017-05-11T12:12:14.528Z,21.20
2017-05-11T12:13:14.407Z,21.20
2017-05-11T12:14:14.004Z,21.20
2017-05-11T12:15:14.237Z,21.20
2017-05-11T12:16:14.234Z,21.20
2017-05-11T12:17:14.562Z,21.20
2017-05-11T12:18:14.487Z,21.20
2017-05-11T12:19:14.602Z,21.20
2017-05-11T12:20:14.675Z,21.20
2017-05-11T12:21:14.908Z,21.30
2017-05-11T12:22:13.763Z,21.20
2017-05-11T12:23:13.898Z,21.30
2017-05-11T12:24:13.924Z,21.30
2017-05-11T12:25:14.708Z,21.30
2017-05-11T12:26:13.765Z,21.30
2017-05-11T12:27:14.621Z,21.30
2017-05-11T12:28:13.815Z,21.30
2017-05-11T12:29:13.887Z,21.40
2017-05-11T12:30:14.119Z,21.40
2017-05-11T12:31:14.897Z,21.40
2017-05-11T12:32:14.858Z,21.50
2017-05-11T12:33:15.574Z,21.50
2017-05-11T12:34:14.310Z,21.60
2017-05-11T12:35:14.868Z,21.60
2017-05-11T12:36:14.394Z,21.70
2017-05-11T12:37:14.866Z,21.70
2017-05-11T12:38:13.866Z,21.70
2017-05-11T12:39:14.065Z,21.80
2017-05-11T12:40:14.063Z,21.80
2017-05-11T12:41:14.277Z,21.80
2017-05-11T12:42:14.192Z,21.80
2017-05-11T12:43:11.574Z,21.90
2017-05-11T12:44:14.317Z,21.90
2017-05-11T12:45:15.302Z,21.90
2017-05-11T12:46:14.047Z,22.00
2017-05-11T12:47:14.494Z,22.00
2017-05-11T12:48:13.885Z,22.00
2017-05-11T12:49:14.071Z,22.10
2017-05-11T12:50:14.973Z,22.10
2017-05-11T12:51:15.185Z,22.10
2017-05-11T12:52:13.661Z,22.10
2017-05-11T12:53:14.006Z,22.20
2017-05-11T12:54:14.172Z,22.20
2017-05-11T12:55:10.504Z,22.30
2017-05-11T12:56:14.900Z,22.30
2017-05-11T12:57:14.346Z,22.30
2017-05-11T12:58:14.515Z,22.30
2017-05-11T12:59:15.075Z,22.30
2017-05-11T13:00:14.201Z,22.30
2017-05-11T13:01:14.453Z,22.40
2017-05-11T13:02:14.490Z,22.40
2017-05-11T13:03:14.359Z,22.30
2017-05-11T13:04:14.249Z,22.30
2017-05-11T13:05:14.797Z,22.40
2017-05-11T13:06:14.034Z,22.40
2017-05-11T13:07:14.119Z,22.40
2017-05-11T13:08:16.069Z,22.40
2017-05-11T13:09:13.993Z,22.40
2017-05-11T13:10:14.226Z,22.40
2017-05-11T13:11:14.236Z,22.40
2017-05-11T13:12:14.345Z,22.40
2017-05-11T13:13:13.493Z,22.40
2017-05-11T13:14:15.014Z,22.50
2017-05-11T13:15:14.368Z,22.50
2017-05-11T13:16:15.240Z,22.40
2017-05-11T13:17:14.322Z,22.40
2017-05-11T13:18:15.130Z,22.50
2017-05-11T13:19:14.045Z,22.50
2017-05-11T13:20:15.106Z,22.50
2017-05-11T13:21:14.409Z,22.50
2017-05-11T13:22:14.378Z,22.60
2017-05-11T13:23:14.319Z,22.60
2017-05-11T13:24:15.084Z,22.60
2017-05-11T13:25:15.151Z,22.60
2017-05-11T13:26:14.063Z,22.60
2017-05-11T13:27:13.958Z,22.60
2017-05-11T13:28:14.079Z,22.70
2017-05-11T13:29:11.537Z,22.70
2017-05-11T13:30:14.424Z,22.70
2017-05-11T13:31:13.639Z,22.70
2017-05-11T13:32:11.348Z,22.70
2017-05-11T13:33:13.714Z,22.80
2017-05-11T13:34:13.941Z,22.80
2017-05-11T13:35:13.908Z,22.80
2017-05-11T13:36:14.021Z,22.90
2017-05-11T13:37:14.010Z,22.80
2017-05-11T13:38:14.424Z,22.90
2017-05-11T13:39:14.440Z,22.80
2017-05-11T13:40:14.290Z,22.80
2017-05-11T13:41:14.381Z,22.80
2017-05-11T13:42:15.243Z,22.90
2017-05-11T13:43:14.193Z,22.80
2017-05-11T13:44:14.207Z,22.90
2017-05-11T13:45:14.136Z,22.90
2017-05-11T13:46:14.349Z,22.90
2017-05-11T13:47:14.256Z,22.80
2017-05-11T13:48:14.515Z,22.90
2017-05-11T13:49:14.909Z,23.00
2017-05-11T13:50:14.181Z,23.00
2017-05-11T13:51:14.137Z,23.10
2017-05-11T13:52:14.788Z,23.10
2017-05-11T13:53:13.489Z,23.10
2017-05-11T13:54:13.927Z,23.20
2017-05-11T13:55:14.303Z,23.20
2017-05-11T13:56:14.428Z,23.20
2017-05-11T13:57:14.380Z,23.30
2017-05-11T13:58:14.677Z,23.30
2017-05-11T13:59:13.738Z,23.30
2017-05-11T14:00:13.929Z,23.30
2017-05-11T14:01:14.138Z,23.30
2017-05-11T14:02:15.544Z,23.30
2017-05-11T14:03:14.353Z,23.30
2017-05-11T14:04:14.508Z,23.30
2017-05-11T14:05:16.037Z,23.20
2017-05-11T14:06:14.224Z,23.20
2017-05-11T14:07:14.899Z,23.20
2017-05-11T14:08:14.149Z,23.10
2017-05-11T14:09:16.198Z,23.10
2017-05-11T14:10:15.448Z,23.10
2017-05-11T14:11:10.848Z,23.10
2017-05-11T14:12:14.348Z,23.10
2017-05-11T14:13:10.350Z,23.10
2017-05-11T14:14:14.750Z,23.00
2017-05-11T14:15:14.497Z,23.00
2017-05-11T14:16:14.785Z,22.90
2017-05-11T14:17:14.184Z,22.90
2017-05-11T14:18:14.452Z,22.90
2017-05-11T14:19:15.402Z,22.90
2017-05-11T14:20:15.099Z,22.90
2017-05-11T14:21:14.827Z,22.90
2017-05-11T14:22:13.751Z,22.80
2017-05-11T14:23:16.686Z,22.80
2017-05-11T14:24:13.687Z,22.80
2017-05-11T14:25:13.934Z,22.80
2017-05-11T14:26:13.788Z,22.80
2017-05-11T14:27:13.852Z,22.80
2017-05-11T14:28:12.719Z,22.80
2017-05-11T14:29:11.297Z,22.80
2017-05-11T14:30:09.850Z,22.80
2017-05-11T14:31:14.636Z,22.70
2017-05-11T14:32:14.970Z,22.80
2017-05-11T14:33:14.571Z,22.80
2017-05-11T14:34:14.565Z,22.70
2017-05-11T14:35:14.718Z,22.80
2017-05-11T14:36:14.585Z,22.80
2017-05-11T14:37:14.550Z,22.80
2017-05-11T14:38:14.507Z,22.70
2017-05-11T14:39:14.612Z,22.80
2017-05-11T14:40:14.525Z,22.80
2017-05-11T14:41:14.384Z,22.90
2017-05-11T14:42:15.159Z,22.90
2017-05-11T14:43:14.399Z,22.90
2017-05-11T14:44:16.322Z,22.90
2017-05-11T14:45:14.564Z,22.90
2017-05-11T14:46:14.556Z,22.90
2017-05-11T14:47:14.430Z,22.90
2017-05-11T14:48:14.491Z,22.90
2017-05-11T14:49:14.326Z,22.90
2017-05-11T14:50:16.101Z,22.90
2017-05-11T14:51:14.960Z,22.90
2017-05-11T14:52:13.821Z,22.90
2017-05-11T14:53:13.943Z,22.90
2017-05-11T14:54:14.698Z,22.90
2017-05-11T14:55:10.060Z,22.90
2017-05-11T14:56:14.431Z,23.00
2017-05-11T14:57:14.495Z,23.00
2017-05-11T14:58:14.260Z,23.00
2017-05-11T14:59:15.316Z,23.00
2017-05-11T15:00:14.289Z,23.00
2017-05-11T15:01:14.255Z,23.00
2017-05-11T15:02:15.115Z,23.00
2017-05-11T15:03:14.203Z,23.00
2017-05-11T15:04:14.277Z,23.00
2017-05-11T15:05:15.321Z,23.00
2017-05-11T15:06:15.343Z,23.00
2017-05-11T15:07:15.144Z,23.00
2017-05-11T15:08:15.813Z,23.00
2017-05-11T15:09:13.781Z,23.00
2017-05-11T15:10:14.482Z,23.00
2017-05-11T15:11:14.492Z,23.00
2017-05-11T15:12:14.070Z,23.00
2017-05-11T15:13:14.220Z,23.00
2017-05-11T15:14:14.497Z,23.00
2017-05-11T15:15:14.235Z,23.00
2017-05-11T15:16:14.347Z,23.00
2017-05-11T15:17:15.756Z,23.00
2017-05-11T15:18:14.193Z,23.00
2017-05-11T15:19:14.156Z,23.00
2017-05-11T15:20:14.248Z,23.00
2017-05-11T15:21:16.158Z,23.00
2017-05-11T15:22:14.605Z,23.00
2017-05-11T15:23:14.005Z,23.00
2017-05-11T15:24:15.397Z,23.00
2017-05-11T15:25:14.355Z,23.00
2017-05-11T15:26:14.543Z,23.00
2017-05-11T15:27:11.724Z,23.00
2017-05-11T15:28:14.440Z,23.00
2017-05-11T15:29:14.603Z,23.00
2017-05-11T15:30:14.555Z,23.00
2017-05-11T15:31:13.802Z,23.00
2017-05-11T15:32:13.937Z,23.00
2017-05-11T15:33:13.769Z,22.90
2017-05-11T15:34:14.629Z,22.90
2017-05-11T15:35:14.708Z,22.90
2017-05-11T15:36:14.770Z,22.90
2017-05-11T15:37:13.877Z,22.80
2017-05-11T15:38:14.143Z,22.80
2017-05-11T15:39:14.158Z,22.70
2017-05-11T15:40:14.916Z,22.70
2017-05-11T15:41:14.066Z,22.70
2017-05-11T15:42:14.242Z,22.70
2017-05-11T15:43:14.790Z,22.60
2017-05-11T15:44:13.972Z,22.60
2017-05-11T15:45:14.382Z,22.60
2017-05-11T15:46:14.495Z,22.50
2017-05-11T15:47:11.878Z,22.50
2017-05-11T15:48:09.158Z,22.50
2017-05-11T15:49:14.808Z,22.50
2017-05-11T15:50:15.295Z,22.40
2017-05-11T15:51:14.474Z,22.40
2017-05-11T15:52:14.367Z,22.40
2017-05-11T15:53:14.462Z,22.30
2017-05-11T15:54:14.674Z,22.30
2017-05-11T15:55:14.376Z,22.30
2017-05-11T15:56:14.310Z,22.30
2017-05-11T15:57:14.028Z,22.30
2017-05-11T15:58:15.002Z,22.30
2017-05-11T15:59:14.254Z,22.20
2017-05-11T16:00:14.551Z,22.20
2017-05-11T16:01:15.130Z,22.20
2017-05-11T16:02:14.322Z,22.20
2017-05-11T16:03:14.516Z,22.20
2017-05-11T16:04:14.360Z,22.20
2017-05-11T16:05:14.373Z,22.20
2017-05-11T16:06:14.622Z,22.10
2017-05-11T16:07:14.833Z,22.10
2017-05-11T16:08:14.650Z,22.10
2017-05-11T16:09:16.165Z,22.10
2017-05-11T16:10:15.399Z,22.10
2017-05-11T16:11:14.466Z,22.10
2017-05-11T16:12:14.479Z,22.10
2017-05-11T16:13:15.663Z,22.10
2017-05-11T16:14:13.978Z,22.00
2017-05-11T16:15:15.595Z,22.00
2017-05-11T16:16:15.196Z,22.00
2017-05-11T16:17:14.725Z,22.00
2017-05-11T16:18:13.867Z,22.00
2017-05-11T16:19:14.442Z,22.00
2017-05-11T16:20:14.985Z,22.00
2017-05-11T16:21:12.343Z,21.90
2017-05-11T16:22:14.116Z,21.90
2017-05-11T16:23:14.486Z,21.90
2017-05-11T16:24:14.676Z,21.90
2017-05-11T16:25:11.289Z,21.90
2017-05-11T16:26:15.400Z,21.90
2017-05-11T16:27:11.745Z,21.90
2017-05-11T16:28:15.481Z,21.90
2017-05-11T16:29:14.662Z,21.90
2017-05-11T16:30:14.913Z,21.80
2017-05-11T16:31:13.753Z,21.90
2017-05-11T16:32:14.066Z,21.90
2017-05-11T16:33:14.250Z,21.80
2017-05-11T16:34:14.289Z,21.80
2017-05-11T16:35:15.885Z,21.80
2017-05-11T16:36:13.999Z,21.80
2017-05-11T16:37:10.007Z,21.80
2017-05-11T16:38:14.748Z,21.80
2017-05-11T16:39:13.973Z,21.80
2017-05-11T16:40:14.086Z,21.80
2017-05-11T16:41:14.541Z,21.80
2017-05-11T16:42:13.685Z,21.80
2017-05-11T16:43:14.945Z,21.80
2017-05-11T16:44:09.777Z,21.80
2017-05-11T16:45:13.865Z,21.70
2017-05-11T16:46:14.055Z,21.70
2017-05-11T16:47:14.743Z,21.70
2017-05-11T16:48:14.278Z,21.70
2017-05-11T16:49:14.958Z,21.70
2017-05-11T16:50:14.787Z,21.70
2017-05-11T16:51:14.768Z,21.70
2017-05-11T16:52:14.019Z,21.70
2017-05-11T16:53:14.596Z,21.70
2017-05-11T16:54:14.606Z,21.70
2017-05-11T16:55:14.398Z,21.70
2017-05-11T16:56:14.063Z,21.70
2017-05-11T16:57:14.230Z,21.70
2017-05-11T16:58:11.318Z,21.70
2017-05-11T16:59:14.139Z,21.70
2017-05-11T17:00:14.260Z,21.70
2017-05-11T17:01:14.431Z,21.70
2017-05-11T17:02:14.306Z,21.60
2017-05-11T17:03:14.274Z,21.60
2017-05-11T17:04:14.075Z,21.70
2017-05-11T17:05:14.895Z,21.60
2017-05-11T17:06:15.505Z,21.60
2017-05-11T17:07:13.821Z,21.60
2017-05-11T17:08:10.606Z,21.60
2017-05-11T17:09:14.751Z,21.60
2017-05-11T17:10:14.814Z,21.60
2017-05-11T17:11:14.193Z,21.60
2017-05-11T17:12:14.143Z,21.60
2017-05-11T17:13:14.373Z,21.60
2017-05-11T17:14:13.047Z,21.50
2017-05-11T17:15:14.499Z,21.50
2017-05-11T17:16:14.833Z,21.50
2017-05-11T17:17:14.690Z,21.50
2017-05-11T17:18:14.171Z,21.50
2017-05-11T17:19:15.182Z,21.40
2017-05-11T17:20:14.921Z,21.40
2017-05-11T17:21:14.107Z,21.40
2017-05-11T17:22:14.512Z,21.40
2017-05-11T17:23:15.347Z,21.40
2017-05-11T17:24:14.882Z,21.40
2017-05-11T17:25:14.053Z,21.40
2017-05-11T17:26:14.200Z,21.40
2017-05-11T17:27:14.394Z,21.40
2017-05-11T17:28:14.562Z,21.40
2017-05-11T17:29:14.513Z,21.40
2017-05-11T17:30:14.886Z,21.40
2017-05-11T17:31:13.968Z,21.30
2017-05-11T17:32:13.941Z,21.30